Sluisgracht — PFBE — position and weather

sailwx.info

Track history (hours):
 
Tides and Currents Weather Stations Pressure Air Temp Water Temp Dewpoint Dewpoint Depression Visibility Wind Speed Wind Dir Waves Ship Positions

Sluisgracht

Last reported at 2018-Sep-20 05:07 UTC. Time now 2018-Sep-21 21:19 UTC.
Position N 49°41' W 006°55'.

Length 173 m; beam 26 m.

Type: Cargo ship. MMSI: 244903000.

Date/timePositionNaut miles runAvg speedWind from/ knotsBaromVisibWave heightAir tempDewpointWater temp
2018-Sep-20 05:07N 49°41' W 006°55'511.3
2018-Sep-20 04:41N 49°41' W 006°48'10011.3
2018-Sep-19 19:51N 49°54' W 004°14'1313.9
2018-Sep-19 18:53N 49°55' W 003°53'513.0
2018-Sep-19 18:30N 49°56' W 003°45'612.8
2018-Sep-19 18:03N 49°57' W 003°36'112.5
2018-Sep-19 18:00N 49°57' W 003°35'612.5
2018-Sep-19 17:30N 49°58' W 003°26'612.2
2018-Sep-19 17:02N 49°58' W 003°17'112.5
2018-Sep-19 16:56N 49°58' W 003°15'512.3
2018-Sep-19 16:30N 49°59' W 003°07'611.8
2018-Sep-19 16:02N 49°60' W 002°58'012.3
2018-Sep-19 16:00N 49°60' W 002°58'611.5
2018-Sep-19 15:30N 50°01' W 002°49'511.6
2018-Sep-19 15:03N 50°03' W 002°41'111.5
2018-Sep-19 14:59N 50°03' W 002°40'2211.6
2018-Sep-19 13:02N 50°09' W 002°06'012.1
2018-Sep-19 13:00N 50°09' W 002°06'612.2
2018-Sep-19 12:30N 50°11' W 001°56'512.5
2018-Sep-19 12:03N 50°12' W 001°48'112.6
2018-Sep-19 12:00N 50°12' W 001°47'613.0
2018-Sep-19 11:30N 50°14' W 001°37'613.4
2018-Sep-19 11:03N 50°16' W 001°28'113.4
2018-Sep-19 11:01N 50°16' W 001°27'713.6
2018-Sep-19 10:30N 50°18' W 001°17'6213.9
2018-Sep-19 06:02N 50°34' E 000°17'013.2
2018-Sep-19 06:00N 50°34' E 000°17'713.1
2018-Sep-19 05:30N 50°36' E 000°27'612.8
2018-Sep-19 05:03N 50°38' E 000°36'112.5
2018-Sep-19 05:00N 50°38' E 000°37'713.1
2018-Sep-19 04:30N 50°43' E 000°44'613.3
2018-Sep-19 04:03N 50°46' E 000°52'113.4
2018-Sep-19 04:00N 50°46' E 000°53'713.5
2018-Sep-19 03:30N 50°50' E 001°01'614.1
2018-Sep-19 03:03N 50°54' E 001°10'114.5
2018-Sep-19 03:00N 50°55' E 001°10'714.7
2018-Sep-19 02:30N 50°60' E 001°19'715.0
2018-Sep-19 02:03N 51°04' E 001°27'115.3
2018-Sep-19 02:00N 51°05' E 001°28'815.0
2018-Sep-19 01:31N 51°09' E 001°37'715.0
2018-Sep-19 01:03N 51°14' E 001°46'114.8
2018-Sep-19 01:00N 51°14' E 001°46'714.6
2018-Sep-19 00:30N 51°20' E 001°52'614.3
2018-Sep-19 00:03N 51°26' E 001°57'114.1
2018-Sep-19 00:00N 51°27' E 001°58'713.9
2018-Sep-18 23:30N 51°32' E 002°05'613.9
2018-Sep-18 23:03N 51°37' E 002°11'114.0
2018-Sep-18 23:00N 51°37' E 002°12'713.6
2018-Sep-18 22:30N 51°43' E 002°19'613.4
2018-Sep-18 22:03N 51°47' E 002°26'113.2
2018-Sep-18 22:00N 51°48' E 002°26'713.1
2018-Sep-18 21:30N 51°53' E 002°33'1612.5
2018-Sep-18 20:13N 52°05' E 002°50'612.4
2018-Sep-18 19:42N 52°10' E 002°57'3112.6
2018-Sep-18 17:15N 52°34' E 003°27'412.6
2018-Sep-18 16:58N 52°37' E 003°31'2112.5
2018-Sep-18 15:16N 52°53' E 003°54'312.1
2018-Sep-18 14:59N 52°56' E 003°57'1112.2
2018-Sep-18 14:03N 53°04' E 004°11'112.0
2018-Sep-18 14:00N 53°04' E 004°12'611.9
2018-Sep-18 13:30N 53°08' E 004°20'511.5
2018-Sep-18 13:03N 53°12' E 004°25'111.4
2018-Sep-18 13:00N 53°12' E 004°26'711.4
2018-Sep-18 12:26N 53°18' E 004°30'1311.4
2018-Sep-18 11:15N 53°30' E 004°42'211.7
2018-Sep-18 11:03N 53°30' E 004°46'111.8
2018-Sep-18 11:00N 53°31' E 004°47'711.7
2018-Sep-18 10:27N 53°33' E 004°57'512.2
2018-Sep-18 10:03N 53°35' E 005°04'112.4
2018-Sep-18 09:59N 53°35' E 005°05'612.9
2018-Sep-18 09:30N 53°37' E 005°16'613.6
2018-Sep-18 09:03N 53°39' E 005°25'113.9
2018-Sep-18 09:01N 53°39' E 005°26'714.1
2018-Sep-18 08:30N 53°41' E 005°38'714.5
2018-Sep-18 08:00N 53°43' E 005°50'714.7
2018-Sep-18 07:30N 53°45' E 006°02'612.3
2018-Sep-18 07:03N 53°40' E 006°07'114.7
2018-Sep-18 07:01N 53°40' E 006°08'714.8
2018-Sep-18 06:30N 53°38' E 006°20'613.5
2018-Sep-18 06:03N 53°37' E 006°30'115.3
2018-Sep-18 06:00N 53°37' E 006°32'816.1
2018-Sep-18 05:30N 53°33' E 006°43'614.4
2018-Sep-18 05:03N 53°28' E 006°50'0 9.0
2018-Sep-18 05:00N 53°28' E 006°50'1 1.0
2018-Sep-18 04:28N 53°27' E 006°50'0 0.0
2018-Sep-18 03:58N 53°27' E 006°50'0 0.0
2018-Sep-18 03:28N 53°27' E 006°50'0 0.0
2018-Sep-18 03:01N 53°27' E 006°50'0 0.0
2018-Sep-18 02:58N 53°27' E 006°50'0 0.0
2018-Sep-18 02:28N 53°27' E 006°50'0 0.0
2018-Sep-18 02:01N 53°27' E 006°50'0 0.0
2018-Sep-18 01:58N 53°27' E 006°50'0 0.0
2018-Sep-18 01:28N 53°27' E 006°50'0 0.0
2018-Sep-18 01:01N 53°27' E 006°50'0 0.1
2018-Sep-18 00:58N 53°27' E 006°50'0 0.0
2018-Sep-18 00:25N 53°27' E 006°50'0 0.0
2018-Sep-18 00:01N 53°27' E 006°50'0 0.1
2018-Sep-17 23:58N 53°27' E 006°50'0 0.0
2018-Sep-17 23:28N 53°27' E 006°50'0 0.0
2018-Sep-17 22:52N 53°27' E 006°50'0 0.0
2018-Sep-17 22:31N 53°27' E 006°50'0 0.0
2018-Sep-17 22:04N 53°27' E 006°50'0 0.0
2018-Sep-17 22:01N 53°27' E 006°50'0 0.0
2018-Sep-17 21:30N 53°27' E 006°50'0 0.0
2018-Sep-17 21:03N 53°27' E 006°50'0 0.0
2018-Sep-17 21:00N 53°27' E 006°50'0 0.0
2018-Sep-17 20:27N 53°27' E 006°50'0 0.0
2018-Sep-17 19:57N 53°27' E 006°50'0 0.0
2018-Sep-17 19:30N 53°27' E 006°50'0 0.0
2018-Sep-17 19:03N 53°27' E 006°50'0 0.1
2018-Sep-17 19:00N 53°27' E 006°50'0 0.0
2018-Sep-17 18:30N 53°27' E 006°50'0 0.0
2018-Sep-17 18:03N 53°27' E 006°50'0 0.1
2018-Sep-17 18:00N 53°27' E 006°50'0 0.0
2018-Sep-17 17:24N 53°27' E 006°50'0 0.0
2018-Sep-17 17:03N 53°27' E 006°50'0 0.0
2018-Sep-17 17:00N 53°27' E 006°50'0 0.0
2018-Sep-17 16:30N 53°27' E 006°50'0 0.0
2018-Sep-17 16:03N 53°27' E 006°50'0 0.1
2018-Sep-17 16:00N 53°27' E 006°50'0 0.0
2018-Sep-17 15:30N 53°27' E 006°50'0 0.0
2018-Sep-17 15:03N 53°27' E 006°50'0 0.0
2018-Sep-17 15:00N 53°27' E 006°50'0 0.0
2018-Sep-17 14:27N 53°27' E 006°50'0 0.0
2018-Sep-17 14:00N 53°27' E 006°50'0 0.0
2018-Sep-17 13:30N 53°27' E 006°50'0 0.0
2018-Sep-17 13:03N 53°27' E 006°50'0 0.0
2018-Sep-17 13:00N 53°27' E 006°50'0 0.0
2018-Sep-17 12:30N 53°27' E 006°50'0 0.0
2018-Sep-17 12:03N 53°27' E 006°50'0 0.0
2018-Sep-17 12:00N 53°27' E 006°50'0 0.0
2018-Sep-17 11:27N 53°27' E 006°50'0 0.0
2018-Sep-17 11:03N 53°27' E 006°50'0 0.0
2018-Sep-17 10:57N 53°27' E 006°50'0 0.0
2018-Sep-17 10:30N 53°27' E 006°50'0 0.0
2018-Sep-17 10:03N 53°27' E 006°50'0 0.0
2018-Sep-17 10:00N 53°27' E 006°50'0 0.0
2018-Sep-17 09:27N 53°27' E 006°50'0 0.0
2018-Sep-17 08:57N 53°27' E 006°50'0 0.0
2018-Sep-17 08:30N 53°27' E 006°50'0 0.0
2018-Sep-17 08:03N 53°27' E 006°50'0 0.0
2018-Sep-17 08:00N 53°27' E 006°50'0 0.0
2018-Sep-17 07:24N 53°27' E 006°50'0 0.0
2018-Sep-17 07:03N 53°27' E 006°50'0 0.1
2018-Sep-17 07:00N 53°27' E 006°50'0 0.0
2018-Sep-17 06:30N 53°27' E 006°50'0 0.0
2018-Sep-17 06:03N 53°27' E 006°50'0 0.0
2018-Sep-17 05:57N 53°27' E 006°50'0 0.0
2018-Sep-17 05:30N 53°27' E 006°50'0 0.0
2018-Sep-17 05:03N 53°27' E 006°50'0 0.0
2018-Sep-17 05:00N 53°27' E 006°50'0 0.0
2018-Sep-17 04:30N 53°27' E 006°50'0 0.0
2018-Sep-17 04:03N 53°27' E 006°50'0 0.0
2018-Sep-17 03:57N 53°27' E 006°50'0 0.0
2018-Sep-17 03:30N 53°27' E 006°50'0 0.0
2018-Sep-17 03:03N 53°27' E 006°50'0 0.0
2018-Sep-17 02:57N 53°27' E 006°50'0 0.0
2018-Sep-17 02:27N 53°27' E 006°50'0 0.0
2018-Sep-17 02:03N 53°27' E 006°50'0 0.0
2018-Sep-17 02:00N 53°27' E 006°50'0 0.0
2018-Sep-17 01:30N 53°27' E 006°50'0 0.0
2018-Sep-17 01:03N 53°27' E 006°50'0 0.1
2018-Sep-17 01:00N 53°27' E 006°50'0 0.0
2018-Sep-17 00:30N 53°27' E 006°50'0 0.0
2018-Sep-17 00:03N 53°27' E 006°50'0 0.1
2018-Sep-17 00:00N 53°27' E 006°50'0 0.0
2018-Sep-16 23:30N 53°27' E 006°50'0 0.0
2018-Sep-16 23:03N 53°27' E 006°50'0 0.0
2018-Sep-16 22:57N 53°27' E 006°50'0 0.0
2018-Sep-16 22:30N 53°27' E 006°50'0 0.0
2018-Sep-16 21:57N 53°27' E 006°50'0 0.0
2018-Sep-16 21:30N 53°27' E 006°50'0 0.0
2018-Sep-16 21:03N 53°27' E 006°50'0 0.0
2018-Sep-16 21:00N 53°27' E 006°50'0 0.0
2018-Sep-16 20:30N 53°27' E 006°50'0 0.0
2018-Sep-16 20:03N 53°27' E 006°50'0 0.0
2018-Sep-16 20:00N 53°27' E 006°50'0 0.0
2018-Sep-16 19:30N 53°27' E 006°50'0 0.0
2018-Sep-16 19:03N 53°27' E 006°50'0 0.1
2018-Sep-16 19:00N 53°27' E 006°50'0 0.0
2018-Sep-16 18:30N 53°27' E 006°50'0 0.0
2018-Sep-16 18:03N 53°27' E 006°50'0 0.1
2018-Sep-16 18:00N 53°27' E 006°50'0 0.0
2018-Sep-16 17:30N 53°27' E 006°50'0 0.0
2018-Sep-16 17:03N 53°27' E 006°50'0 0.0
2018-Sep-16 17:00N 53°27' E 006°50'0 0.0
2018-Sep-16 16:30N 53°27' E 006°50'0 0.0
2018-Sep-16 16:03N 53°27' E 006°50'0 0.0
2018-Sep-16 16:00N 53°27' E 006°50'0 0.0
2018-Sep-16 15:30N 53°27' E 006°50'0 0.0
2018-Sep-16 15:03N 53°27' E 006°50'0 0.0
2018-Sep-16 14:57N 53°27' E 006°50'0 0.0
2018-Sep-16 14:30N 53°27' E 006°50'5 4.8
2018-Sep-16 13:30N 53°31' E 006°46'17 8.3
2018-Sep-16 11:24N 53°41' E 006°21'5 8.9
2018-Sep-16 10:49N 53°46' E 006°22'514.7
2018-Sep-16 10:30N 53°50' E 006°19'714.4
2018-Sep-16 10:01N 53°57' E 006°18'22913.9
2018-Sep-15 17:34N 57°29' E 008°51'113.6
2018-Sep-15 17:29N 57°30' E 008°53'613.6
2018-Sep-15 17:03N 57°34' E 009°01'013.5
2018-Sep-15 17:00N 57°34' E 009°02'713.5
2018-Sep-15 16:29N 57°38' E 009°13'613.1
2018-Sep-15 16:03N 57°39' E 009°24'113.2
2018-Sep-15 15:59N 57°40' E 009°25'713.2
2018-Sep-15 15:26N 57°41' E 009°38'513.3
2018-Sep-15 15:02N 57°42' E 009°48'1712.8
2018-Sep-15 13:41N 57°46' E 010°20'312.9
2018-Sep-15 13:29N 57°46' E 010°25'512.7
2018-Sep-15 13:03N 57°46' E 010°35'112.5
2018-Sep-15 13:00N 57°46' E 010°36'510.7
2018-Sep-15 12:30N 57°45' E 010°46'612.6
2018-Sep-15 12:03N 57°41' E 010°38'0 4.2
2018-Sep-15 12:00N 57°41' E 010°38'0 0.3
2018-Sep-15 11:27N 57°41' E 010°38'0 0.0
2018-Sep-15 11:03N 57°41' E 010°38'0 0.0
2018-Sep-15 10:54N 57°41' E 010°38'0 0.0
2018-Sep-15 10:30N 57°41' E 010°38'0 0.0
2018-Sep-15 10:03N 57°41' E 010°38'0 0.0
2018-Sep-15 09:57N 57°41' E 010°38'0 0.0
2018-Sep-15 09:30N 57°41' E 010°38'0 0.0
2018-Sep-15 09:03N 57°41' E 010°38'0 0.1
2018-Sep-15 09:00N 57°41' E 010°38'0 0.0
2018-Sep-15 08:27N 57°41' E 010°38'0 0.0
2018-Sep-15 08:00N 57°41' E 010°38'0 0.2
2018-Sep-15 07:30N 57°41' E 010°38'0 0.0
2018-Sep-15 07:03N 57°41' E 010°38'0 0.1
2018-Sep-15 07:00N 57°41' E 010°38'0 0.0
2018-Sep-15 06:30N 57°41' E 010°38'0 0.0
2018-Sep-15 06:00N 57°41' E 010°38'0 0.0
2018-Sep-15 05:30N 57°41' E 010°38'0 0.1
2018-Sep-15 05:03N 57°41' E 010°38'0 0.4
2018-Sep-15 05:00N 57°41' E 010°38'0 0.0
2018-Sep-15 04:30N 57°41' E 010°38'0 0.0
2018-Sep-15 04:03N 57°41' E 010°38'0 0.3
2018-Sep-15 04:00N 57°41' E 010°38'0 0.0
2018-Sep-15 03:30N 57°41' E 010°38'0 0.0
2018-Sep-15 03:03N 57°41' E 010°38'0 0.2
2018-Sep-15 03:00N 57°41' E 010°38'0 0.0
2018-Sep-15 02:30N 57°41' E 010°38'0 0.0
2018-Sep-15 02:03N 57°41' E 010°38'0 0.1
2018-Sep-15 01:54N 57°41' E 010°38'0 0.2
2018-Sep-15 01:30N 57°41' E 010°38'511.1
2018-Sep-15 01:03N 57°39' E 010°47'114.6
2018-Sep-15 01:00N 57°39' E 010°48'714.6
2018-Sep-15 00:30N 57°35' E 010°60'714.7
2018-Sep-15 00:03N 57°32' E 011°11'114.9
2018-Sep-15 00:00N 57°32' E 011°12'714.8
2018-Sep-14 23:30N 57°29' E 011°24'715.1
2018-Sep-14 23:03N 57°23' E 011°30'115.3
2018-Sep-14 23:00N 57°22' E 011°30'815.7
2018-Sep-14 22:30N 57°14' E 011°35'715.8
2018-Sep-14 22:03N 57°08' E 011°39'115.8
2018-Sep-14 22:00N 57°07' E 011°40'815.5
2018-Sep-14 21:30N 56°60' E 011°45'10613.4
2018-Sep-14 13:35N 55°16' E 011°04'113.7
2018-Sep-14 13:29N 55°15' E 011°05'512.0
2018-Sep-14 13:04N 55°10' E 011°02'114.3
2018-Sep-14 13:01N 55°10' E 011°01'713.6
2018-Sep-14 12:31N 55°03' E 010°60'613.5
2018-Sep-14 12:04N 54°57' E 010°56'114.4
2018-Sep-14 12:00N 54°57' E 010°55'713.7
2018-Sep-14 11:30N 54°51' E 010°50'614.4
2018-Sep-14 11:03N 54°45' E 010°47'114.8
2018-Sep-14 11:00N 54°44' E 010°47'612.2
2018-Sep-14 10:31N 54°39' E 010°53'613.7
2018-Sep-14 10:03N 54°36' E 011°02'114.1
2018-Sep-14 10:00N 54°36' E 011°03'713.6
2018-Sep-14 09:30N 54°35' E 011°15'613.7
2018-Sep-14 09:03N 54°32' E 011°25'113.8
2018-Sep-14 09:00N 54°32' E 011°26'713.7
2018-Sep-14 08:30N 54°29' E 011°37'613.5
2018-Sep-14 08:03N 54°27' E 011°46'113.1
2018-Sep-14 08:00N 54°27' E 011°48'7013.3
2018-Sep-14 02:43N 54°59' E 013°36'314.4
2018-Sep-14 02:30N 54°60' E 013°41'714.7
2018-Sep-14 02:03N 55°02' E 013°52'115.0
2018-Sep-14 02:00N 55°02' E 013°53'714.7
2018-Sep-14 01:30N 55°05' E 014°05'714.6
2018-Sep-14 01:03N 55°10' E 014°12'114.6
2018-Sep-14 01:00N 55°11' E 014°13'714.7
2018-Sep-14 00:30N 55°16' E 014°21'714.7
2018-Sep-14 00:03N 55°22' E 014°28'115.0
2018-Sep-14 00:00N 55°22' E 014°29'714.6
2018-Sep-13 23:30N 55°27' E 014°38'714.8
2018-Sep-13 23:03N 55°30' E 014°49'115.1
2018-Sep-13 23:00N 55°31' E 014°50'714.9
2018-Sep-13 22:30N 55°34' E 015°01'714.8
2018-Sep-13 22:03N 55°37' E 015°12'114.8
2018-Sep-13 22:00N 55°38' E 015°13'714.7
2018-Sep-13 21:30N 55°41' E 015°24'714.6
2018-Sep-13 21:03N 55°45' E 015°34'114.6
2018-Sep-13 21:00N 55°45' E 015°35'714.6
2018-Sep-13 20:30N 55°49' E 015°46'614.3
2018-Sep-13 20:03N 55°52' E 015°56'114.0
2018-Sep-13 20:00N 55°53' E 015°57'714.2
2018-Sep-13 19:30N 55°56' E 016°08'614.3
2018-Sep-13 19:03N 55°59' E 016°18'114.5
2018-Sep-13 19:00N 55°60' E 016°19'714.4
2018-Sep-13 18:30N 56°03' E 016°30'614.4
2018-Sep-13 18:03N 56°07' E 016°40'114.2
2018-Sep-13 18:00N 56°07' E 016°41'713.9
2018-Sep-13 17:30N 56°13' E 016°48'714.7
2018-Sep-13 17:03N 56°19' E 016°53'114.9
2018-Sep-13 17:00N 56°20' E 016°53'714.7
2018-Sep-13 16:30N 56°27' E 016°58'714.4
2018-Sep-13 16:02N 56°33' E 017°02'21113.8
2018-Sep-13 00:40N 59°47' E 019°40'316.1
2018-Sep-13 00:30N 59°49' E 019°37'716.1
2018-Sep-13 00:03N 59°55' E 019°27'115.8
2018-Sep-13 00:00N 59°56' E 019°26'816.1
2018-Sep-12 23:30N 60°02' E 019°16'716.1
2018-Sep-12 23:03N 60°07' E 019°07'115.8
2018-Sep-12 23:00N 60°08' E 019°06'714.8
2018-Sep-12 22:30N 60°15' E 019°01'715.0
2018-Sep-12 22:02N 60°22' E 019°00'114.9
2018-Sep-12 22:00N 60°22' E 019°00'815.3
2018-Sep-12 21:30N 60°30' E 018°60'6814.3
2018-Sep-12 16:48N 61°07' E 020°56'412.6
2018-Sep-12 16:29N 61°09' E 021°03'510.7
2018-Sep-12 16:01N 61°07' E 021°12'111.4
2018-Sep-12 15:57N 61°06' E 021°14'510.2
2018-Sep-12 15:30N 61°07' E 021°23'1 2.9
2018-Sep-12 15:00N 61°08' E 021°26'0 0.0
2018-Sep-12 14:01N 61°08' E 021°26'0 0.1
2018-Sep-12 13:58N 61°08' E 021°26'0 0.0
2018-Sep-12 13:25N 61°08' E 021°26'0 0.0
2018-Sep-12 13:01N 61°08' E 021°26'0 0.1
2018-Sep-12 12:58N 61°08' E 021°26'0 0.0
2018-Sep-12 12:30N 61°08' E 021°26'0 0.0
2018-Sep-12 12:02N 61°08' E 021°26'0 0.0
2018-Sep-12 11:56N 61°08' E 021°26'0 0.0
2018-Sep-12 11:28N 61°08' E 021°26'0 0.0
2018-Sep-12 11:01N 61°08' E 021°26'0 0.0
2018-Sep-12 10:58N 61°08' E 021°26'0 0.0
2018-Sep-12 10:28N 61°08' E 021°26'0 0.0
2018-Sep-12 10:03N 61°08' E 021°26'0 0.0
2018-Sep-12 10:00N 61°08' E 021°26'0 0.0
2018-Sep-12 09:30N 61°08' E 021°26'0 0.0
2018-Sep-12 09:03N 61°08' E 021°26'0 0.0
2018-Sep-12 09:00N 61°08' E 021°26'0 0.0
2018-Sep-12 08:27N 61°08' E 021°26'0 0.0
2018-Sep-12 08:03N 61°08' E 021°26'0 0.0
2018-Sep-12 07:58N 61°08' E 021°26'0 0.0
2018-Sep-12 07:30N 61°08' E 021°26'0 0.0
2018-Sep-12 07:01N 61°08' E 021°26'0 0.1
2018-Sep-12 06:58N 61°08' E 021°26'0 0.0
2018-Sep-12 06:28N 61°08' E 021°26'0 0.0
2018-Sep-12 06:01N 61°08' E 021°26'0 0.0
2018-Sep-12 05:57N 61°08' E 021°26'0 0.0
2018-Sep-12 05:30N 61°08' E 021°26'0 0.0
2018-Sep-12 04:59N 61°08' E 021°26'0 0.0
2018-Sep-12 04:29N 61°08' E 021°26'0 0.0
2018-Sep-12 04:02N 61°08' E 021°26'0 0.1
2018-Sep-12 03:59N 61°08' E 021°26'0 0.0
2018-Sep-12 03:29N 61°08' E 021°26'0 0.0
2018-Sep-12 03:02N 61°08' E 021°26'0 0.0
2018-Sep-12 03:00N 61°08' E 021°26'0 0.0
2018-Sep-12 02:29N 61°08' E 021°26'0 0.0
2018-Sep-12 02:02N 61°08' E 021°26'0 0.0
2018-Sep-12 01:59N 61°08' E 021°26'0 0.0
2018-Sep-12 01:29N 61°08' E 021°26'0 0.0
2018-Sep-12 01:02N 61°08' E 021°26'0 0.1
2018-Sep-12 00:59N 61°08' E 021°26'0 0.0
2018-Sep-12 00:29N 61°08' E 021°26'0 0.0
2018-Sep-12 00:02N 61°08' E 021°26'0 0.0
2018-Sep-11 23:59N 61°08' E 021°26'0 0.0
2018-Sep-11 23:29N 61°08' E 021°26'0 0.0
2018-Sep-11 23:02N 61°08' E 021°26'0 0.1
2018-Sep-11 22:59N 61°08' E 021°26'0 0.0
2018-Sep-11 22:29N 61°08' E 021°26'0 0.0
2018-Sep-11 22:02N 61°08' E 021°26'0 0.0
2018-Sep-11 21:59N 61°08' E 021°26'0 0.0
2018-Sep-11 21:26N 61°08' E 021°26'0 0.0
2018-Sep-11 21:02N 61°08' E 021°26'0 0.0
2018-Sep-11 20:59N 61°08' E 021°26'0 0.0
2018-Sep-11 20:29N 61°08' E 021°26'0 0.0
2018-Sep-11 19:59N 61°08' E 021°26'0 0.0
2018-Sep-11 19:29N 61°08' E 021°26'0 0.0
2018-Sep-11 19:03N 61°08' E 021°26'0 0.0
2018-Sep-11 18:59N 61°08' E 021°26'0 0.0
2018-Sep-11 18:26N 61°08' E 021°26'0 0.0
2018-Sep-11 18:02N 61°08' E 021°26'0 0.1
2018-Sep-11 17:56N 61°08' E 021°26'0 0.0
2018-Sep-11 17:29N 61°08' E 021°26'0 0.0
2018-Sep-11 17:02N 61°08' E 021°26'0 0.0
2018-Sep-11 16:56N 61°08' E 021°26'0 0.3
2018-Sep-11 16:29N 61°08' E 021°26'0 0.2
2018-Sep-11 15:59N 61°08' E 021°26'0 0.0
2018-Sep-11 15:29N 61°08' E 021°26'0 0.0
2018-Sep-11 15:02N 61°08' E 021°26'0 0.0
2018-Sep-11 14:56N 61°08' E 021°26'0 0.0
2018-Sep-11 14:26N 61°08' E 021°26'0 0.0
2018-Sep-11 13:59N 61°08' E 021°26'0 0.0
2018-Sep-11 13:26N 61°08' E 021°26'0 0.0
2018-Sep-11 13:01N 61°08' E 021°26'0 0.0
2018-Sep-11 12:58N 61°08' E 021°26'0 0.0
2018-Sep-11 12:27N 61°08' E 021°26'0 0.0
2018-Sep-11 11:53N 61°08' E 021°26'0 0.0
2018-Sep-11 11:26N 61°08' E 021°26'0 0.0
2018-Sep-11 11:03N 61°08' E 021°26'0 0.0
2018-Sep-11 10:59N 61°08' E 021°26'0 0.0
2018-Sep-11 10:29N 61°08' E 021°26'0 0.0
2018-Sep-11 10:02N 61°08' E 021°26'0 0.0
2018-Sep-11 09:59N 61°08' E 021°26'0 0.0
2018-Sep-11 09:29N 61°08' E 021°26'0 0.0
2018-Sep-11 09:02N 61°08' E 021°26'0 0.0
2018-Sep-11 08:59N 61°08' E 021°26'0 0.0
2018-Sep-11 08:29N 61°08' E 021°26'0 0.0
2018-Sep-11 08:02N 61°08' E 021°26'0 0.0
2018-Sep-11 08:00N 61°08' E 021°26'0 0.0
2018-Sep-11 07:29N 61°08' E 021°26'0 0.0
2018-Sep-11 07:02N 61°08' E 021°26'0 0.0
2018-Sep-11 06:59N 61°08' E 021°26'0 0.0
2018-Sep-11 06:29N 61°08' E 021°26'0 0.0
2018-Sep-11 06:02N 61°08' E 021°26'0 0.1
2018-Sep-11 05:59N 61°08' E 021°26'0 0.0
2018-Sep-11 05:29N 61°08' E 021°26'0 0.0
2018-Sep-11 04:59N 61°08' E 021°26'0 0.0
2018-Sep-11 04:29N 61°08' E 021°26'0 0.0
2018-Sep-11 04:02N 61°08' E 021°26'0 0.1
2018-Sep-11 03:59N 61°08' E 021°26'0 0.0
2018-Sep-11 03:29N 61°08' E 021°26'0 0.0
2018-Sep-11 03:02N 61°08' E 021°26'0 0.0
2018-Sep-11 02:56N 61°08' E 021°26'0 0.0
2018-Sep-11 02:23N 61°08' E 021°26'0 0.0
2018-Sep-11 02:01N 61°08' E 021°26'0 0.0
2018-Sep-11 01:53N 61°08' E 021°26'0 0.0
2018-Sep-11 01:30N 61°08' E 021°26'0 0.0
2018-Sep-11 01:01N 61°08' E 021°26'0 0.1
2018-Sep-11 00:58N 61°08' E 021°26'0 0.0
2018-Sep-11 00:17N 61°08' E 021°26'0 0.0
2018-Sep-10 23:59N 61°08' E 021°26'0 0.0
2018-Sep-10 23:23N 61°08' E 021°26'0 0.0
2018-Sep-10 22:56N 61°08' E 021°26'0 0.0
2018-Sep-10 22:29N 61°08' E 021°26'0 0.0
2018-Sep-10 22:01N 61°08' E 021°26'0 0.0
2018-Sep-10 21:50N 61°08' E 021°26'0 0.0
2018-Sep-10 21:28N 61°08' E 021°26'0 0.0
2018-Sep-10 20:58N 61°08' E 021°26'0 0.0
2018-Sep-10 20:29N 61°08' E 021°26'0 0.0
2018-Sep-10 19:59N 61°08' E 021°26'0 0.0
2018-Sep-10 19:29N 61°08' E 021°26'0 0.0
2018-Sep-10 18:53N 61°08' E 021°26'0 0.0
2018-Sep-10 18:25N 61°08' E 021°26'0 0.0
2018-Sep-10 17:56N 61°08' E 021°26'0 0.0
2018-Sep-10 17:22N 61°08' E 021°26'0 0.0
2018-Sep-10 17:00N 61°08' E 021°26'0 0.0
2018-Sep-10 16:29N 61°08' E 021°26'0 0.0
2018-Sep-10 16:01N 61°08' E 021°26'0 0.0
2018-Sep-10 15:58N 61°08' E 021°26'0 0.0
2018-Sep-10 15:29N 61°08' E 021°26'0 0.0
2018-Sep-10 15:02N 61°08' E 021°26'0 0.0
2018-Sep-10 14:56N 61°08' E 021°26'0 0.0
2018-Sep-10 14:03N 61°08' E 021°26'0 0.0
2018-Sep-10 14:00N 61°08' E 021°26'0 0.0
2018-Sep-10 13:30N 61°08' E 021°26'0 0.0
2018-Sep-10 13:01N 61°08' E 021°26'0 0.1
2018-Sep-10 12:58N 61°08' E 021°26'0 0.0
2018-Sep-10 12:29N 61°08' E 021°26'0 0.0
2018-Sep-10 12:02N 61°08' E 021°26'0 0.0
2018-Sep-10 11:47N 61°08' E 021°26'0 0.0
2018-Sep-10 11:17N 61°08' E 021°26'0 0.0
2018-Sep-10 11:02N 61°08' E 021°26'0 0.0
2018-Sep-10 10:49N 61°08' E 021°26'0 0.0
2018-Sep-10 10:29N 61°08' E 021°26'0 0.0
2018-Sep-10 09:56N 61°08' E 021°26'0 0.0
2018-Sep-10 09:28N 61°08' E 021°26'0 0.0
2018-Sep-10 08:58N 61°08' E 021°26'0 0.0
2018-Sep-10 08:28N 61°08' E 021°26'0 0.0
2018-Sep-10 08:01N 61°08' E 021°26'0 0.0
2018-Sep-10 07:55N 61°08' E 021°26'0 0.0
2018-Sep-10 07:28N 61°08' E 021°26'0 0.0
2018-Sep-10 07:02N 61°08' E 021°26'0 0.0
2018-Sep-10 06:59N 61°08' E 021°26'0 0.0
2018-Sep-10 06:29N 61°08' E 021°26'0 0.0
2018-Sep-10 06:02N 61°08' E 021°26'0 0.0
2018-Sep-10 05:59N 61°08' E 021°26'0 0.0
2018-Sep-10 05:29N 61°08' E 021°26'  
Track history (hours):
 
Tides and Currents Weather Stations Pressure Air Temp Water Temp Dewpoint Dewpoint Depression Visibility Wind Speed Wind Dir Waves Ship Positions

Sluisgracht

Last reported at 2018-Sep-20 05:07 UTC. Time now 2018-Sep-21 21:19 UTC.
Position N 49°41' W 006°55'.

Length 173 m; beam 26 m.

Type: Cargo ship. MMSI: 244903000.

Date/timePositionNaut miles runAvg speedWind from/ knotsBaromVisibWave heightAir tempDewpointWater temp
2018-Sep-20 05:07N 49°41' W 006°55'511.3
2018-Sep-20 04:41N 49°41' W 006°48'10011.3
2018-Sep-19 19:51N 49°54' W 004°14'1313.9
2018-Sep-19 18:53N 49°55' W 003°53'513.0
2018-Sep-19 18:30N 49°56' W 003°45'612.8
2018-Sep-19 18:03N 49°57' W 003°36'112.5
2018-Sep-19 18:00N 49°57' W 003°35'612.5
2018-Sep-19 17:30N 49°58' W 003°26'612.2
2018-Sep-19 17:02N 49°58' W 003°17'112.5
2018-Sep-19 16:56N 49°58' W 003°15'512.3
2018-Sep-19 16:30N 49°59' W 003°07'611.8
2018-Sep-19 16:02N 49°60' W 002°58'012.3
2018-Sep-19 16:00N 49°60' W 002°58'611.5
2018-Sep-19 15:30N 50°01' W 002°49'511.6
2018-Sep-19 15:03N 50°03' W 002°41'111.5
2018-Sep-19 14:59N 50°03' W 002°40'2211.6
2018-Sep-19 13:02N 50°09' W 002°06'012.1
2018-Sep-19 13:00N 50°09' W 002°06'612.2
2018-Sep-19 12:30N 50°11' W 001°56'512.5
2018-Sep-19 12:03N 50°12' W 001°48'112.6
2018-Sep-19 12:00N 50°12' W 001°47'613.0
2018-Sep-19 11:30N 50°14' W 001°37'613.4
2018-Sep-19 11:03N 50°16' W 001°28'113.4
2018-Sep-19 11:01N 50°16' W 001°27'713.6
2018-Sep-19 10:30N 50°18' W 001°17'6213.9
2018-Sep-19 06:02N 50°34' E 000°17'013.2
2018-Sep-19 06:00N 50°34' E 000°17'713.1
2018-Sep-19 05:30N 50°36' E 000°27'612.8
2018-Sep-19 05:03N 50°38' E 000°36'112.5
2018-Sep-19 05:00N 50°38' E 000°37'713.1
2018-Sep-19 04:30N 50°43' E 000°44'613.3
2018-Sep-19 04:03N 50°46' E 000°52'113.4
2018-Sep-19 04:00N 50°46' E 000°53'713.5
2018-Sep-19 03:30N 50°50' E 001°01'614.1
2018-Sep-19 03:03N 50°54' E 001°10'114.5
2018-Sep-19 03:00N 50°55' E 001°10'714.7
2018-Sep-19 02:30N 50°60' E 001°19'715.0
2018-Sep-19 02:03N 51°04' E 001°27'115.3
2018-Sep-19 02:00N 51°05' E 001°28'815.0
2018-Sep-19 01:31N 51°09' E 001°37'715.0
2018-Sep-19 01:03N 51°14' E 001°46'114.8
2018-Sep-19 01:00N 51°14' E 001°46'714.6
2018-Sep-19 00:30N 51°20' E 001°52'614.3
2018-Sep-19 00:03N 51°26' E 001°57'114.1
2018-Sep-19 00:00N 51°27' E 001°58'713.9
2018-Sep-18 23:30N 51°32' E 002°05'613.9
2018-Sep-18 23:03N 51°37' E 002°11'114.0
2018-Sep-18 23:00N 51°37' E 002°12'713.6
2018-Sep-18 22:30N 51°43' E 002°19'613.4
2018-Sep-18 22:03N 51°47' E 002°26'113.2
2018-Sep-18 22:00N 51°48' E 002°26'713.1
2018-Sep-18 21:30N 51°53' E 002°33'1612.5
2018-Sep-18 20:13N 52°05' E 002°50'612.4
2018-Sep-18 19:42N 52°10' E 002°57'3112.6
2018-Sep-18 17:15N 52°34' E 003°27'412.6
2018-Sep-18 16:58N 52°37' E 003°31'2112.5
2018-Sep-18 15:16N 52°53' E 003°54'312.1
2018-Sep-18 14:59N 52°56' E 003°57'1112.2
2018-Sep-18 14:03N 53°04' E 004°11'112.0
2018-Sep-18 14:00N 53°04' E 004°12'611.9
2018-Sep-18 13:30N 53°08' E 004°20'511.5
2018-Sep-18 13:03N 53°12' E 004°25'111.4
2018-Sep-18 13:00N 53°12' E 004°26'711.4
2018-Sep-18 12:26N 53°18' E 004°30'1311.4
2018-Sep-18 11:15N 53°30' E 004°42'211.7
2018-Sep-18 11:03N 53°30' E 004°46'111.8
2018-Sep-18 11:00N 53°31' E 004°47'711.7
2018-Sep-18 10:27N 53°33' E 004°57'512.2
2018-Sep-18 10:03N 53°35' E 005°04'112.4
2018-Sep-18 09:59N 53°35' E 005°05'612.9
2018-Sep-18 09:30N 53°37' E 005°16'613.6
2018-Sep-18 09:03N 53°39' E 005°25'113.9
2018-Sep-18 09:01N 53°39' E 005°26'714.1
2018-Sep-18 08:30N 53°41' E 005°38'714.5
2018-Sep-18 08:00N 53°43' E 005°50'714.7
2018-Sep-18 07:30N 53°45' E 006°02'612.3
2018-Sep-18 07:03N 53°40' E 006°07'114.7
2018-Sep-18 07:01N 53°40' E 006°08'714.8
2018-Sep-18 06:30N 53°38' E 006°20'613.5
2018-Sep-18 06:03N 53°37' E 006°30'115.3
2018-Sep-18 06:00N 53°37' E 006°32'816.1
2018-Sep-18 05:30N 53°33' E 006°43'614.4
2018-Sep-18 05:03N 53°28' E 006°50'0 9.0
2018-Sep-18 05:00N 53°28' E 006°50'1 1.0
2018-Sep-18 04:28N 53°27' E 006°50'0 0.0
2018-Sep-18 03:58N 53°27' E 006°50'0 0.0
2018-Sep-18 03:28N 53°27' E 006°50'0 0.0
2018-Sep-18 03:01N 53°27' E 006°50'0 0.0
2018-Sep-18 02:58N 53°27' E 006°50'0 0.0
2018-Sep-18 02:28N 53°27' E 006°50'0 0.0
2018-Sep-18 02:01N 53°27' E 006°50'0 0.0
2018-Sep-18 01:58N 53°27' E 006°50'0 0.0
2018-Sep-18 01:28N 53°27' E 006°50'0 0.0
2018-Sep-18 01:01N 53°27' E 006°50'0 0.1
2018-Sep-18 00:58N 53°27' E 006°50'0 0.0
2018-Sep-18 00:25N 53°27' E 006°50'0 0.0
2018-Sep-18 00:01N 53°27' E 006°50'0 0.1
2018-Sep-17 23:58N 53°27' E 006°50'0 0.0
2018-Sep-17 23:28N 53°27' E 006°50'0 0.0
2018-Sep-17 22:52N 53°27' E 006°50'0 0.0
2018-Sep-17 22:31N 53°27' E 006°50'0 0.0
2018-Sep-17 22:04N 53°27' E 006°50'0 0.0
2018-Sep-17 22:01N 53°27' E 006°50'0 0.0
2018-Sep-17 21:30N 53°27' E 006°50'0 0.0
2018-Sep-17 21:03N 53°27' E 006°50'0 0.0
2018-Sep-17 21:00N 53°27' E 006°50'0 0.0
2018-Sep-17 20:27N 53°27' E 006°50'0 0.0
2018-Sep-17 19:57N 53°27' E 006°50'0 0.0
2018-Sep-17 19:30N 53°27' E 006°50'0 0.0
2018-Sep-17 19:03N 53°27' E 006°50'0 0.1
2018-Sep-17 19:00N 53°27' E 006°50'0 0.0
2018-Sep-17 18:30N 53°27' E 006°50'0 0.0
2018-Sep-17 18:03N 53°27' E 006°50'0 0.1
2018-Sep-17 18:00N 53°27' E 006°50'0 0.0
2018-Sep-17 17:24N 53°27' E 006°50'0 0.0
2018-Sep-17 17:03N 53°27' E 006°50'0 0.0
2018-Sep-17 17:00N 53°27' E 006°50'0 0.0
2018-Sep-17 16:30N 53°27' E 006°50'0 0.0
2018-Sep-17 16:03N 53°27' E 006°50'0 0.1
2018-Sep-17 16:00N 53°27' E 006°50'0 0.0
2018-Sep-17 15:30N 53°27' E 006°50'0 0.0
2018-Sep-17 15:03N 53°27' E 006°50'0 0.0
2018-Sep-17 15:00N 53°27' E 006°50'0 0.0
2018-Sep-17 14:27N 53°27' E 006°50'0 0.0
2018-Sep-17 14:00N 53°27' E 006°50'0 0.0
2018-Sep-17 13:30N 53°27' E 006°50'0 0.0
2018-Sep-17 13:03N 53°27' E 006°50'0 0.0
2018-Sep-17 13:00N 53°27' E 006°50'0 0.0
2018-Sep-17 12:30N 53°27' E 006°50'0 0.0
2018-Sep-17 12:03N 53°27' E 006°50'0 0.0
2018-Sep-17 12:00N 53°27' E 006°50'0 0.0
2018-Sep-17 11:27N 53°27' E 006°50'0 0.0
2018-Sep-17 11:03N 53°27' E 006°50'0 0.0
2018-Sep-17 10:57N 53°27' E 006°50'0 0.0
2018-Sep-17 10:30N 53°27' E 006°50'0 0.0
2018-Sep-17 10:03N 53°27' E 006°50'0 0.0
2018-Sep-17 10:00N 53°27' E 006°50'0 0.0
2018-Sep-17 09:27N 53°27' E 006°50'0 0.0
2018-Sep-17 08:57N 53°27' E 006°50'0 0.0
2018-Sep-17 08:30N 53°27' E 006°50'0 0.0
2018-Sep-17 08:03N 53°27' E 006°50'0 0.0
2018-Sep-17 08:00N 53°27' E 006°50'0 0.0
2018-Sep-17 07:24N 53°27' E 006°50'0 0.0
2018-Sep-17 07:03N 53°27' E 006°50'0 0.1
2018-Sep-17 07:00N 53°27' E 006°50'0 0.0
2018-Sep-17 06:30N 53°27' E 006°50'0 0.0
2018-Sep-17 06:03N 53°27' E 006°50'0 0.0
2018-Sep-17 05:57N 53°27' E 006°50'0 0.0
2018-Sep-17 05:30N 53°27' E 006°50'0 0.0
2018-Sep-17 05:03N 53°27' E 006°50'0 0.0
2018-Sep-17 05:00N 53°27' E 006°50'0 0.0
2018-Sep-17 04:30N 53°27' E 006°50'0 0.0
2018-Sep-17 04:03N 53°27' E 006°50'0 0.0
2018-Sep-17 03:57N 53°27' E 006°50'0 0.0
2018-Sep-17 03:30N 53°27' E 006°50'0 0.0
2018-Sep-17 03:03N 53°27' E 006°50'0 0.0
2018-Sep-17 02:57N 53°27' E 006°50'0 0.0
2018-Sep-17 02:27N 53°27' E 006°50'0 0.0
2018-Sep-17 02:03N 53°27' E 006°50'0 0.0
2018-Sep-17 02:00N 53°27' E 006°50'0 0.0
2018-Sep-17 01:30N 53°27' E 006°50'0 0.0
2018-Sep-17 01:03N 53°27' E 006°50'0 0.1
2018-Sep-17 01:00N 53°27' E 006°50'0 0.0
2018-Sep-17 00:30N 53°27' E 006°50'0 0.0
2018-Sep-17 00:03N 53°27' E 006°50'0 0.1
2018-Sep-17 00:00N 53°27' E 006°50'0 0.0
2018-Sep-16 23:30N 53°27' E 006°50'0 0.0
2018-Sep-16 23:03N 53°27' E 006°50'0 0.0
2018-Sep-16 22:57N 53°27' E 006°50'0 0.0
2018-Sep-16 22:30N 53°27' E 006°50'0 0.0
2018-Sep-16 21:57N 53°27' E 006°50'0 0.0
2018-Sep-16 21:30N 53°27' E 006°50'0 0.0
2018-Sep-16 21:03N 53°27' E 006°50'0 0.0
2018-Sep-16 21:00N 53°27' E 006°50'0 0.0
2018-Sep-16 20:30N 53°27' E 006°50'0 0.0
2018-Sep-16 20:03N 53°27' E 006°50'0 0.0
2018-Sep-16 20:00N 53°27' E 006°50'0 0.0
2018-Sep-16 19:30N 53°27' E 006°50'0 0.0
2018-Sep-16 19:03N 53°27' E 006°50'0 0.1
2018-Sep-16 19:00N 53°27' E 006°50'0 0.0
2018-Sep-16 18:30N 53°27' E 006°50'0 0.0
2018-Sep-16 18:03N 53°27' E 006°50'0 0.1
2018-Sep-16 18:00N 53°27' E 006°50'0 0.0
2018-Sep-16 17:30N 53°27' E 006°50'0 0.0
2018-Sep-16 17:03N 53°27' E 006°50'0 0.0
2018-Sep-16 17:00N 53°27' E 006°50'0 0.0
2018-Sep-16 16:30N 53°27' E 006°50'0 0.0
2018-Sep-16 16:03N 53°27' E 006°50'0 0.0
2018-Sep-16 16:00N 53°27' E 006°50'0 0.0
2018-Sep-16 15:30N 53°27' E 006°50'0 0.0
2018-Sep-16 15:03N 53°27' E 006°50'0 0.0
2018-Sep-16 14:57N 53°27' E 006°50'0 0.0
2018-Sep-16 14:30N 53°27' E 006°50'5 4.8
2018-Sep-16 13:30N 53°31' E 006°46'17 8.3
2018-Sep-16 11:24N 53°41' E 006°21'5 8.9
2018-Sep-16 10:49N 53°46' E 006°22'514.7
2018-Sep-16 10:30N 53°50' E 006°19'714.4
2018-Sep-16 10:01N 53°57' E 006°18'22913.9
2018-Sep-15 17:34N 57°29' E 008°51'113.6
2018-Sep-15 17:29N 57°30' E 008°53'613.6
2018-Sep-15 17:03N 57°34' E 009°01'013.5
2018-Sep-15 17:00N 57°34' E 009°02'713.5
2018-Sep-15 16:29N 57°38' E 009°13'613.1
2018-Sep-15 16:03N 57°39' E 009°24'113.2
2018-Sep-15 15:59N 57°40' E 009°25'713.2
2018-Sep-15 15:26N 57°41' E 009°38'513.3
2018-Sep-15 15:02N 57°42' E 009°48'1712.8
2018-Sep-15 13:41N 57°46' E 010°20'312.9
2018-Sep-15 13:29N 57°46' E 010°25'512.7
2018-Sep-15 13:03N 57°46' E 010°35'112.5
2018-Sep-15 13:00N 57°46' E 010°36'510.7
2018-Sep-15 12:30N 57°45' E 010°46'612.6
2018-Sep-15 12:03N 57°41' E 010°38'0 4.2
2018-Sep-15 12:00N 57°41' E 010°38'0 0.3
2018-Sep-15 11:27N 57°41' E 010°38'0 0.0
2018-Sep-15 11:03N 57°41' E 010°38'0 0.0
2018-Sep-15 10:54N 57°41' E 010°38'0 0.0
2018-Sep-15 10:30N 57°41' E 010°38'0 0.0
2018-Sep-15 10:03N 57°41' E 010°38'0 0.0
2018-Sep-15 09:57N 57°41' E 010°38'0 0.0
2018-Sep-15 09:30N 57°41' E 010°38'0 0.0
2018-Sep-15 09:03N 57°41' E 010°38'0 0.1
2018-Sep-15 09:00N 57°41' E 010°38'0 0.0
2018-Sep-15 08:27N 57°41' E 010°38'0 0.0
2018-Sep-15 08:00N 57°41' E 010°38'0 0.2
2018-Sep-15 07:30N 57°41' E 010°38'0 0.0
2018-Sep-15 07:03N 57°41' E 010°38'0 0.1
2018-Sep-15 07:00N 57°41' E 010°38'0 0.0
2018-Sep-15 06:30N 57°41' E 010°38'0 0.0
2018-Sep-15 06:00N 57°41' E 010°38'0 0.0
2018-Sep-15 05:30N 57°41' E 010°38'0 0.1
2018-Sep-15 05:03N 57°41' E 010°38'0 0.4
2018-Sep-15 05:00N 57°41' E 010°38'0 0.0
2018-Sep-15 04:30N 57°41' E 010°38'0 0.0
2018-Sep-15 04:03N 57°41' E 010°38'0 0.3
2018-Sep-15 04:00N 57°41' E 010°38'0 0.0
2018-Sep-15 03:30N 57°41' E 010°38'0 0.0
2018-Sep-15 03:03N 57°41' E 010°38'0 0.2
2018-Sep-15 03:00N 57°41' E 010°38'0 0.0
2018-Sep-15 02:30N 57°41' E 010°38'0 0.0
2018-Sep-15 02:03N 57°41' E 010°38'0 0.1
2018-Sep-15 01:54N 57°41' E 010°38'0 0.2
2018-Sep-15 01:30N 57°41' E 010°38'511.1
2018-Sep-15 01:03N 57°39' E 010°47'114.6
2018-Sep-15 01:00N 57°39' E 010°48'714.6
2018-Sep-15 00:30N 57°35' E 010°60'714.7
2018-Sep-15 00:03N 57°32' E 011°11'114.9
2018-Sep-15 00:00N 57°32' E 011°12'714.8
2018-Sep-14 23:30N 57°29' E 011°24'715.1
2018-Sep-14 23:03N 57°23' E 011°30'115.3
2018-Sep-14 23:00N 57°22' E 011°30'815.7
2018-Sep-14 22:30N 57°14' E 011°35'715.8
2018-Sep-14 22:03N 57°08' E 011°39'115.8
2018-Sep-14 22:00N 57°07' E 011°40'815.5
2018-Sep-14 21:30N 56°60' E 011°45'10613.4
2018-Sep-14 13:35N 55°16' E 011°04'113.7
2018-Sep-14 13:29N 55°15' E 011°05'512.0
2018-Sep-14 13:04N 55°10' E 011°02'114.3
2018-Sep-14 13:01N 55°10' E 011°01'713.6
2018-Sep-14 12:31N 55°03' E 010°60'613.5
2018-Sep-14 12:04N 54°57' E 010°56'114.4
2018-Sep-14 12:00N 54°57' E 010°55'713.7
2018-Sep-14 11:30N 54°51' E 010°50'614.4
2018-Sep-14 11:03N 54°45' E 010°47'114.8
2018-Sep-14 11:00N 54°44' E 010°47'612.2
2018-Sep-14 10:31N 54°39' E 010°53'613.7
2018-Sep-14 10:03N 54°36' E 011°02'114.1
2018-Sep-14 10:00N 54°36' E 011°03'713.6
2018-Sep-14 09:30N 54°35' E 011°15'613.7
2018-Sep-14 09:03N 54°32' E 011°25'113.8
2018-Sep-14 09:00N 54°32' E 011°26'713.7
2018-Sep-14 08:30N 54°29' E 011°37'613.5
2018-Sep-14 08:03N 54°27' E 011°46'113.1
2018-Sep-14 08:00N 54°27' E 011°48'7013.3
2018-Sep-14 02:43N 54°59' E 013°36'314.4
2018-Sep-14 02:30N 54°60' E 013°41'714.7
2018-Sep-14 02:03N 55°02' E 013°52'115.0
2018-Sep-14 02:00N 55°02' E 013°53'714.7
2018-Sep-14 01:30N 55°05' E 014°05'714.6
2018-Sep-14 01:03N 55°10' E 014°12'114.6
2018-Sep-14 01:00N 55°11' E 014°13'714.7
2018-Sep-14 00:30N 55°16' E 014°21'714.7
2018-Sep-14 00:03N 55°22' E 014°28'115.0
2018-Sep-14 00:00N 55°22' E 014°29'714.6
2018-Sep-13 23:30N 55°27' E 014°38'714.8
2018-Sep-13 23:03N 55°30' E 014°49'115.1
2018-Sep-13 23:00N 55°31' E 014°50'714.9
2018-Sep-13 22:30N 55°34' E 015°01'714.8
2018-Sep-13 22:03N 55°37' E 015°12'114.8
2018-Sep-13 22:00N 55°38' E 015°13'714.7
2018-Sep-13 21:30N 55°41' E 015°24'714.6
2018-Sep-13 21:03N 55°45' E 015°34'114.6
2018-Sep-13 21:00N 55°45' E 015°35'714.6
2018-Sep-13 20:30N 55°49' E 015°46'614.3
2018-Sep-13 20:03N 55°52' E 015°56'114.0
2018-Sep-13 20:00N 55°53' E 015°57'714.2
2018-Sep-13 19:30N 55°56' E 016°08'614.3
2018-Sep-13 19:03N 55°59' E 016°18'114.5
2018-Sep-13 19:00N 55°60' E 016°19'714.4
2018-Sep-13 18:30N 56°03' E 016°30'614.4
2018-Sep-13 18:03N 56°07' E 016°40'114.2
2018-Sep-13 18:00N 56°07' E 016°41'713.9
2018-Sep-13 17:30N 56°13' E 016°48'714.7
2018-Sep-13 17:03N 56°19' E 016°53'114.9
2018-Sep-13 17:00N 56°20' E 016°53'714.7
2018-Sep-13 16:30N 56°27' E 016°58'714.4
2018-Sep-13 16:02N 56°33' E 017°02'21113.8
2018-Sep-13 00:40N 59°47' E 019°40'316.1
2018-Sep-13 00:30N 59°49' E 019°37'716.1
2018-Sep-13 00:03N 59°55' E 019°27'115.8
2018-Sep-13 00:00N 59°56' E 019°26'816.1
2018-Sep-12 23:30N 60°02' E 019°16'716.1
2018-Sep-12 23:03N 60°07' E 019°07'115.8
2018-Sep-12 23:00N 60°08' E 019°06'714.8
2018-Sep-12 22:30N 60°15' E 019°01'715.0
2018-Sep-12 22:02N 60°22' E 019°00'114.9
2018-Sep-12 22:00N 60°22' E 019°00'815.3
2018-Sep-12 21:30N 60°30' E 018°60'6814.3
2018-Sep-12 16:48N 61°07' E 020°56'412.6
2018-Sep-12 16:29N 61°09' E 021°03'510.7
2018-Sep-12 16:01N 61°07' E 021°12'111.4
2018-Sep-12 15:57N 61°06' E 021°14'510.2
2018-Sep-12 15:30N 61°07' E 021°23'1 2.9
2018-Sep-12 15:00N 61°08' E 021°26'0 0.0
2018-Sep-12 14:01N 61°08' E 021°26'0 0.1
2018-Sep-12 13:58N 61°08' E 021°26'0 0.0
2018-Sep-12 13:25N 61°08' E 021°26'0 0.0
2018-Sep-12 13:01N 61°08' E 021°26'0 0.1
2018-Sep-12 12:58N 61°08' E 021°26'0 0.0
2018-Sep-12 12:30N 61°08' E 021°26'0 0.0
2018-Sep-12 12:02N 61°08' E 021°26'0 0.0
2018-Sep-12 11:56N 61°08' E 021°26'0 0.0
2018-Sep-12 11:28N 61°08' E 021°26'0 0.0
2018-Sep-12 11:01N 61°08' E 021°26'0 0.0
2018-Sep-12 10:58N 61°08' E 021°26'0 0.0
2018-Sep-12 10:28N 61°08' E 021°26'0 0.0
2018-Sep-12 10:03N 61°08' E 021°26'0 0.0
2018-Sep-12 10:00N 61°08' E 021°26'0 0.0
2018-Sep-12 09:30N 61°08' E 021°26'0 0.0
2018-Sep-12 09:03N 61°08' E 021°26'0 0.0
2018-Sep-12 09:00N 61°08' E 021°26'0 0.0
2018-Sep-12 08:27N 61°08' E 021°26'0 0.0
2018-Sep-12 08:03N 61°08' E 021°26'0 0.0
2018-Sep-12 07:58N 61°08' E 021°26'0 0.0
2018-Sep-12 07:30N 61°08' E 021°26'0 0.0
2018-Sep-12 07:01N 61°08' E 021°26'0 0.1
2018-Sep-12 06:58N 61°08' E 021°26'0 0.0
2018-Sep-12 06:28N 61°08' E 021°26'0 0.0
2018-Sep-12 06:01N 61°08' E 021°26'0 0.0
2018-Sep-12 05:57N 61°08' E 021°26'0 0.0
2018-Sep-12 05:30N 61°08' E 021°26'0 0.0
2018-Sep-12 04:59N 61°08' E 021°26'0 0.0
2018-Sep-12 04:29N 61°08' E 021°26'0 0.0
2018-Sep-12 04:02N 61°08' E 021°26'0 0.1
2018-Sep-12 03:59N 61°08' E 021°26'0 0.0
2018-Sep-12 03:29N 61°08' E 021°26'0 0.0
2018-Sep-12 03:02N 61°08' E 021°26'0 0.0
2018-Sep-12 03:00N 61°08' E 021°26'0 0.0
2018-Sep-12 02:29N 61°08' E 021°26'0 0.0
2018-Sep-12 02:02N 61°08' E 021°26'0 0.0
2018-Sep-12 01:59N 61°08' E 021°26'0 0.0
2018-Sep-12 01:29N 61°08' E 021°26'0 0.0
2018-Sep-12 01:02N 61°08' E 021°26'0 0.1
2018-Sep-12 00:59N 61°08' E 021°26'0 0.0
2018-Sep-12 00:29N 61°08' E 021°26'0 0.0
2018-Sep-12 00:02N 61°08' E 021°26'0 0.0
2018-Sep-11 23:59N 61°08' E 021°26'0 0.0
2018-Sep-11 23:29N 61°08' E 021°26'0 0.0
2018-Sep-11 23:02N 61°08' E 021°26'0 0.1
2018-Sep-11 22:59N 61°08' E 021°26'0 0.0
2018-Sep-11 22:29N 61°08' E 021°26'0 0.0
2018-Sep-11 22:02N 61°08' E 021°26'0 0.0
2018-Sep-11 21:59N 61°08' E 021°26'0 0.0
2018-Sep-11 21:26N 61°08' E 021°26'0 0.0
2018-Sep-11 21:02N 61°08' E 021°26'0 0.0
2018-Sep-11 20:59N 61°08' E 021°26'0 0.0
2018-Sep-11 20:29N 61°08' E 021°26'0 0.0
2018-Sep-11 19:59N 61°08' E 021°26'0 0.0
2018-Sep-11 19:29N 61°08' E 021°26'0 0.0
2018-Sep-11 19:03N 61°08' E 021°26'0 0.0
2018-Sep-11 18:59N 61°08' E 021°26'0 0.0
2018-Sep-11 18:26N 61°08' E 021°26'0 0.0
2018-Sep-11 18:02N 61°08' E 021°26'0 0.1
2018-Sep-11 17:56N 61°08' E 021°26'0 0.0
2018-Sep-11 17:29N 61°08' E 021°26'0 0.0
2018-Sep-11 17:02N 61°08' E 021°26'0 0.0
2018-Sep-11 16:56N 61°08' E 021°26'0 0.3
2018-Sep-11 16:29N 61°08' E 021°26'0 0.2
2018-Sep-11 15:59N 61°08' E 021°26'0 0.0
2018-Sep-11 15:29N 61°08' E 021°26'0 0.0
2018-Sep-11 15:02N 61°08' E 021°26'0 0.0
2018-Sep-11 14:56N 61°08' E 021°26'0 0.0
2018-Sep-11 14:26N 61°08' E 021°26'0 0.0
2018-Sep-11 13:59N 61°08' E 021°26'0 0.0
2018-Sep-11 13:26N 61°08' E 021°26'0 0.0
2018-Sep-11 13:01N 61°08' E 021°26'0 0.0
2018-Sep-11 12:58N 61°08' E 021°26'0 0.0
2018-Sep-11 12:27N 61°08' E 021°26'0 0.0
2018-Sep-11 11:53N 61°08' E 021°26'0 0.0
2018-Sep-11 11:26N 61°08' E 021°26'0 0.0
2018-Sep-11 11:03N 61°08' E 021°26'0 0.0
2018-Sep-11 10:59N 61°08' E 021°26'0 0.0
2018-Sep-11 10:29N 61°08' E 021°26'0 0.0
2018-Sep-11 10:02N 61°08' E 021°26'0 0.0
2018-Sep-11 09:59N 61°08' E 021°26'0 0.0
2018-Sep-11 09:29N 61°08' E 021°26'0 0.0
2018-Sep-11 09:02N 61°08' E 021°26'0 0.0
2018-Sep-11 08:59N 61°08' E 021°26'0 0.0
2018-Sep-11 08:29N 61°08' E 021°26'0 0.0
2018-Sep-11 08:02N 61°08' E 021°26'0 0.0
2018-Sep-11 08:00N 61°08' E 021°26'0 0.0
2018-Sep-11 07:29N 61°08' E 021°26'0 0.0
2018-Sep-11 07:02N 61°08' E 021°26'0 0.0
2018-Sep-11 06:59N 61°08' E 021°26'0 0.0
2018-Sep-11 06:29N 61°08' E 021°26'0 0.0
2018-Sep-11 06:02N 61°08' E 021°26'0 0.1
2018-Sep-11 05:59N 61°08' E 021°26'0 0.0
2018-Sep-11 05:29N 61°08' E 021°26'0 0.0
2018-Sep-11 04:59N 61°08' E 021°26'0 0.0
2018-Sep-11 04:29N 61°08' E 021°26'0 0.0
2018-Sep-11 04:02N 61°08' E 021°26'0 0.1
2018-Sep-11 03:59N 61°08' E 021°26'0 0.0
2018-Sep-11 03:29N 61°08' E 021°26'0 0.0
2018-Sep-11 03:02N 61°08' E 021°26'0 0.0
2018-Sep-11 02:56N 61°08' E 021°26'0 0.0
2018-Sep-11 02:23N 61°08' E 021°26'0 0.0
2018-Sep-11 02:01N 61°08' E 021°26'0 0.0
2018-Sep-11 01:53N 61°08' E 021°26'0 0.0
2018-Sep-11 01:30N 61°08' E 021°26'0 0.0
2018-Sep-11 01:01N 61°08' E 021°26'0 0.1
2018-Sep-11 00:58N 61°08' E 021°26'0 0.0
2018-Sep-11 00:17N 61°08' E 021°26'0 0.0
2018-Sep-10 23:59N 61°08' E 021°26'0 0.0
2018-Sep-10 23:23N 61°08' E 021°26'0 0.0
2018-Sep-10 22:56N 61°08' E 021°26'0 0.0
2018-Sep-10 22:29N 61°08' E 021°26'0 0.0
2018-Sep-10 22:01N 61°08' E 021°26'0 0.0
2018-Sep-10 21:50N 61°08' E 021°26'0 0.0
2018-Sep-10 21:28N 61°08' E 021°26'0 0.0
2018-Sep-10 20:58N 61°08' E 021°26'0 0.0
2018-Sep-10 20:29N 61°08' E 021°26'0 0.0
2018-Sep-10 19:59N 61°08' E 021°26'0 0.0
2018-Sep-10 19:29N 61°08' E 021°26'0 0.0
2018-Sep-10 18:53N 61°08' E 021°26'0 0.0
2018-Sep-10 18:25N 61°08' E 021°26'0 0.0
2018-Sep-10 17:56N 61°08' E 021°26'0 0.0
2018-Sep-10 17:22N 61°08' E 021°26'0 0.0
2018-Sep-10 17:00N 61°08' E 021°26'0 0.0
2018-Sep-10 16:29N 61°08' E 021°26'0 0.0
2018-Sep-10 16:01N 61°08' E 021°26'0 0.0
2018-Sep-10 15:58N 61°08' E 021°26'0 0.0
2018-Sep-10 15:29N 61°08' E 021°26'0 0.0
2018-Sep-10 15:02N 61°08' E 021°26'0 0.0
2018-Sep-10 14:56N 61°08' E 021°26'0 0.0
2018-Sep-10 14:03N 61°08' E 021°26'0 0.0
2018-Sep-10 14:00N 61°08' E 021°26'0 0.0
2018-Sep-10 13:30N 61°08' E 021°26'0 0.0
2018-Sep-10 13:01N 61°08' E 021°26'0 0.1
2018-Sep-10 12:58N 61°08' E 021°26'0 0.0
2018-Sep-10 12:29N 61°08' E 021°26'0 0.0
2018-Sep-10 12:02N 61°08' E 021°26'0 0.0
2018-Sep-10 11:47N 61°08' E 021°26'0 0.0
2018-Sep-10 11:17N 61°08' E 021°26'0 0.0
2018-Sep-10 11:02N 61°08' E 021°26'0 0.0
2018-Sep-10 10:49N 61°08' E 021°26'0 0.0
2018-Sep-10 10:29N 61°08' E 021°26'0 0.0
2018-Sep-10 09:56N 61°08' E 021°26'0 0.0
2018-Sep-10 09:28N 61°08' E 021°26'0 0.0
2018-Sep-10 08:58N 61°08' E 021°26'0 0.0
2018-Sep-10 08:28N 61°08' E 021°26'0 0.0
2018-Sep-10 08:01N 61°08' E 021°26'0 0.0
2018-Sep-10 07:55N 61°08' E 021°26'0 0.0
2018-Sep-10 07:28N 61°08' E 021°26'0 0.0
2018-Sep-10 07:02N 61°08' E 021°26'0 0.0
2018-Sep-10 06:59N 61°08' E 021°26'0 0.0
2018-Sep-10 06:29N 61°08' E 021°26'0 0.0
2018-Sep-10 06:02N 61°08' E 021°26'0 0.0
2018-Sep-10 05:59N 61°08' E 021°26'0 0.0
2018-Sep-10 05:29N 61°08' E 021°26'  

Dump ship's entire track history